sensor_id;sensor_type;location;lat;lon;timestamp;P1;durP1;ratioP1;P2;durP2;ratioP2
66626;SDS011;53498;50.422;14.912;2022-08-21T00:01:21;4.40;;;2.97;;
66626;SDS011;53498;50.422;14.912;2022-08-21T00:03:51;4.22;;;2.88;;
66626;SDS011;53498;50.422;14.912;2022-08-21T00:06:19;3.10;;;2.67;;
66626;SDS011;53498;50.422;14.912;2022-08-21T00:08:45;4.57;;;3.33;;
66626;SDS011;53498;50.422;14.912;2022-08-21T00:11:11;6.15;;;3.17;;
66626;SDS011;53498;50.422;14.912;2022-08-21T00:13:37;6.03;;;3.85;;
66626;SDS011;53498;50.422;14.912;2022-08-21T00:16:03;5.50;;;3.85;;
66626;SDS011;53498;50.422;14.912;2022-08-21T00:18:29;4.32;;;3.28;;
66626;SDS011;53498;50.422;14.912;2022-08-21T00:20:55;5.72;;;4.25;;
66626;SDS011;53498;50.422;14.912;2022-08-21T00:23:21;6.63;;;4.35;;
66626;SDS011;53498;50.422;14.912;2022-08-21T00:25:47;5.13;;;3.88;;
66626;SDS011;53498;50.422;14.912;2022-08-21T00:28:13;6.97;;;3.17;;
66626;SDS011;53498;50.422;14.912;2022-08-21T00:30:40;4.03;;;3.63;;
66626;SDS011;53498;50.422;14.912;2022-08-21T00:33:07;5.70;;;3.95;;
66626;SDS011;53498;50.422;14.912;2022-08-21T00:35:34;7.22;;;3.90;;
66626;SDS011;53498;50.422;14.912;2022-08-21T00:38:03;6.93;;;4.03;;
66626;SDS011;53498;50.422;14.912;2022-08-21T00:40:39;6.82;;;4.03;;
66626;SDS011;53498;50.422;14.912;2022-08-21T00:43:08;6.82;;;4.50;;
66626;SDS011;53498;50.422;14.912;2022-08-21T00:45:38;7.72;;;4.60;;
66626;SDS011;53498;50.422;14.912;2022-08-21T00:48:04;6.55;;;4.28;;
66626;SDS011;53498;50.422;14.912;2022-08-21T00:50:31;7.45;;;5.15;;
66626;SDS011;53498;50.422;14.912;2022-08-21T00:52:58;5.28;;;3.75;;
66626;SDS011;53498;50.422;14.912;2022-08-21T00:55:27;7.10;;;4.30;;
66626;SDS011;53498;50.422;14.912;2022-08-21T00:57:55;4.55;;;3.20;;
66626;SDS011;53498;50.422;14.912;2022-08-21T01:00:24;7.43;;;4.00;;
66626;SDS011;53498;50.422;14.912;2022-08-21T01:03:02;5.82;;;3.88;;
66626;SDS011;53498;50.422;14.912;2022-08-21T01:05:33;6.07;;;4.18;;
66626;SDS011;53498;50.422;14.912;2022-08-21T01:07:58;5.00;;;3.80;;
66626;SDS011;53498;50.422;14.912;2022-08-21T01:10:24;8.95;;;4.45;;
66626;SDS011;53498;50.422;14.912;2022-08-21T01:12:52;8.13;;;4.63;;
66626;SDS011;53498;50.422;14.912;2022-08-21T01:15:20;7.63;;;4.25;;
66626;SDS011;53498;50.422;14.912;2022-08-21T01:17:48;7.10;;;4.70;;
66626;SDS011;53498;50.422;14.912;2022-08-21T01:20:17;6.68;;;4.85;;
66626;SDS011;53498;50.422;14.912;2022-08-21T01:22:49;10.05;;;4.53;;
66626;SDS011;53498;50.422;14.912;2022-08-21T01:25:15;6.50;;;4.20;;
66626;SDS011;53498;50.422;14.912;2022-08-21T01:27:42;6.75;;;4.78;;
66626;SDS011;53498;50.422;14.912;2022-08-21T01:30:16;5.18;;;4.05;;
66626;SDS011;53498;50.422;14.912;2022-08-21T01:32:45;7.05;;;4.35;;
66626;SDS011;53498;50.422;14.912;2022-08-21T01:35:12;6.95;;;4.30;;
66626;SDS011;53498;50.422;14.912;2022-08-21T01:37:38;7.15;;;4.40;;
66626;SDS011;53498;50.422;14.912;2022-08-21T01:40:05;7.53;;;4.88;;
66626;SDS011;53498;50.422;14.912;2022-08-21T01:42:31;7.47;;;4.60;;
66626;SDS011;53498;50.422;14.912;2022-08-21T01:44:57;7.32;;;4.90;;
66626;SDS011;53498;50.422;14.912;2022-08-21T01:47:23;7.55;;;4.95;;
66626;SDS011;53498;50.422;14.912;2022-08-21T01:49:48;7.18;;;4.47;;
66626;SDS011;53498;50.422;14.912;2022-08-21T01:52:14;8.13;;;5.20;;
66626;SDS011;53498;50.422;14.912;2022-08-21T01:54:40;6.70;;;5.03;;
66626;SDS011;53498;50.422;14.912;2022-08-21T01:57:07;8.77;;;6.03;;
66626;SDS011;53498;50.422;14.912;2022-08-21T01:59:33;9.02;;;5.38;;
66626;SDS011;53498;50.422;14.912;2022-08-21T02:01:59;8.98;;;5.40;;
66626;SDS011;53498;50.422;14.912;2022-08-21T02:04:25;8.93;;;5.78;;
66626;SDS011;53498;50.422;14.912;2022-08-21T02:06:55;8.88;;;4.93;;
66626;SDS011;53498;50.422;14.912;2022-08-21T02:09:21;9.95;;;6.35;;
66626;SDS011;53498;50.422;14.912;2022-08-21T02:11:47;9.63;;;5.95;;
66626;SDS011;53498;50.422;14.912;2022-08-21T02:14:13;10.52;;;5.90;;
66626;SDS011;53498;50.422;14.912;2022-08-21T02:16:40;9.43;;;5.53;;
66626;SDS011;53498;50.422;14.912;2022-08-21T02:19:08;9.15;;;6.20;;
66626;SDS011;53498;50.422;14.912;2022-08-21T02:21:34;9.05;;;5.07;;
66626;SDS011;53498;50.422;14.912;2022-08-21T02:24:00;8.68;;;5.97;;
66626;SDS011;53498;50.422;14.912;2022-08-21T02:26:26;11.35;;;6.97;;
66626;SDS011;53498;50.422;14.912;2022-08-21T02:28:52;10.63;;;5.72;;
66626;SDS011;53498;50.422;14.912;2022-08-21T02:31:18;7.85;;;5.07;;
66626;SDS011;53498;50.422;14.912;2022-08-21T02:33:44;11.60;;;6.00;;
66626;SDS011;53498;50.422;14.912;2022-08-21T02:36:10;8.45;;;5.63;;
66626;SDS011;53498;50.422;14.912;2022-08-21T02:38:37;10.23;;;5.97;;
66626;SDS011;53498;50.422;14.912;2022-08-21T02:41:05;12.00;;;7.43;;
66626;SDS011;53498;50.422;14.912;2022-08-21T02:43:33;9.07;;;6.40;;
66626;SDS011;53498;50.422;14.912;2022-08-21T02:45:59;8.27;;;5.53;;
66626;SDS011;53498;50.422;14.912;2022-08-21T02:48:26;10.50;;;5.47;;
66626;SDS011;53498;50.422;14.912;2022-08-21T02:50:55;10.75;;;6.38;;
66626;SDS011;53498;50.422;14.912;2022-08-21T02:53:26;10.85;;;6.47;;
66626;SDS011;53498;50.422;14.912;2022-08-21T02:55:53;9.90;;;6.53;;
66626;SDS011;53498;50.422;14.912;2022-08-21T02:58:21;9.13;;;5.70;;
66626;SDS011;53498;50.422;14.912;2022-08-21T03:00:49;9.27;;;5.60;;
66626;SDS011;53498;50.422;14.912;2022-08-21T03:03:16;8.98;;;5.90;;
66626;SDS011;53498;50.422;14.912;2022-08-21T03:05:42;11.60;;;6.18;;
66626;SDS011;53498;50.422;14.912;2022-08-21T03:08:10;9.90;;;6.60;;
66626;SDS011;53498;50.422;14.912;2022-08-21T03:10:38;8.93;;;5.65;;
66626;SDS011;53498;50.422;14.912;2022-08-21T03:13:13;10.15;;;5.88;;
66626;SDS011;53498;50.422;14.912;2022-08-21T03:15:39;10.48;;;6.47;;
66626;SDS011;53498;50.422;14.912;2022-08-21T03:18:05;12.15;;;6.50;;
66626;SDS011;53498;50.422;14.912;2022-08-21T03:20:32;9.05;;;5.72;;
66626;SDS011;53498;50.422;14.912;2022-08-21T03:22:59;8.43;;;5.68;;
66626;SDS011;53498;50.422;14.912;2022-08-21T03:25:26;8.65;;;5.70;;
66626;SDS011;53498;50.422;14.912;2022-08-21T03:27:52;9.57;;;5.40;;
66626;SDS011;53498;50.422;14.912;2022-08-21T03:30:19;8.30;;;5.25;;
66626;SDS011;53498;50.422;14.912;2022-08-21T03:32:49;8.60;;;6.00;;
66626;SDS011;53498;50.422;14.912;2022-08-21T03:35:16;7.97;;;5.22;;
66626;SDS011;53498;50.422;14.912;2022-08-21T03:37:42;9.82;;;5.38;;
66626;SDS011;53498;50.422;14.912;2022-08-21T03:40:08;8.15;;;5.32;;
66626;SDS011;53498;50.422;14.912;2022-08-21T03:42:36;11.02;;;5.60;;
66626;SDS011;53498;50.422;14.912;2022-08-21T03:45:03;6.68;;;4.82;;
66626;SDS011;53498;50.422;14.912;2022-08-21T03:47:29;6.05;;;5.30;;
66626;SDS011;53498;50.422;14.912;2022-08-21T03:49:55;8.63;;;5.45;;
66626;SDS011;53498;50.422;14.912;2022-08-21T03:52:26;10.60;;;6.13;;
66626;SDS011;53498;50.422;14.912;2022-08-21T03:54:52;7.40;;;5.07;;
66626;SDS011;53498;50.422;14.912;2022-08-21T03:57:18;8.52;;;5.25;;
66626;SDS011;53498;50.422;14.912;2022-08-21T03:59:44;7.03;;;4.50;;
66626;SDS011;53498;50.422;14.912;2022-08-21T04:02:10;7.40;;;4.38;;
66626;SDS011;53498;50.422;14.912;2022-08-21T04:04:36;6.75;;;4.43;;
66626;SDS011;53498;50.422;14.912;2022-08-21T04:07:02;5.90;;;4.13;;
66626;SDS011;53498;50.422;14.912;2022-08-21T04:09:28;7.20;;;4.95;;
66626;SDS011;53498;50.422;14.912;2022-08-21T04:11:55;6.50;;;4.43;;
66626;SDS011;53498;50.422;14.912;2022-08-21T04:14:27;5.43;;;3.70;;
66626;SDS011;53498;50.422;14.912;2022-08-21T04:16:53;6.72;;;4.50;;
66626;SDS011;53498;50.422;14.912;2022-08-21T04:19:19;6.93;;;4.70;;
66626;SDS011;53498;50.422;14.912;2022-08-21T04:21:44;8.60;;;5.45;;
66626;SDS011;53498;50.422;14.912;2022-08-21T04:24:10;7.65;;;4.72;;
66626;SDS011;53498;50.422;14.912;2022-08-21T04:26:36;6.43;;;5.35;;
66626;SDS011;53498;50.422;14.912;2022-08-21T04:29:03;9.23;;;3.80;;
66626;SDS011;53498;50.422;14.912;2022-08-21T04:31:31;6.43;;;4.40;;
66626;SDS011;53498;50.422;14.912;2022-08-21T04:33:57;8.35;;;4.60;;
66626;SDS011;53498;50.422;14.912;2022-08-21T04:36:23;6.13;;;3.88;;
66626;SDS011;53498;50.422;14.912;2022-08-21T04:38:48;5.70;;;4.38;;
66626;SDS011;53498;50.422;14.912;2022-08-21T04:41:14;8.45;;;5.18;;
66626;SDS011;53498;50.422;14.912;2022-08-21T04:43:40;5.90;;;5.20;;
66626;SDS011;53498;50.422;14.912;2022-08-21T04:46:05;5.03;;;4.07;;
66626;SDS011;53498;50.422;14.912;2022-08-21T04:48:32;6.28;;;4.20;;
66626;SDS011;53498;50.422;14.912;2022-08-21T04:53:41;7.00;;;3.90;;
66626;SDS011;53498;50.422;14.912;2022-08-21T04:56:25;7.88;;;4.78;;
66626;SDS011;53498;50.422;14.912;2022-08-21T04:58:57;4.68;;;3.30;;
66626;SDS011;53498;50.422;14.912;2022-08-21T05:01:25;6.72;;;4.40;;
66626;SDS011;53498;50.422;14.912;2022-08-21T05:03:54;5.55;;;2.50;;
66626;SDS011;53498;50.422;14.912;2022-08-21T05:06:21;5.07;;;3.90;;
66626;SDS011;53498;50.422;14.912;2022-08-21T05:08:49;5.72;;;3.33;;
66626;SDS011;53498;50.422;14.912;2022-08-21T05:11:18;6.95;;;3.65;;
66626;SDS011;53498;50.422;14.912;2022-08-21T05:13:45;5.03;;;3.15;;
66626;SDS011;53498;50.422;14.912;2022-08-21T05:16:10;6.70;;;3.90;;
66626;SDS011;53498;50.422;14.912;2022-08-21T05:18:36;4.22;;;2.60;;
66626;SDS011;53498;50.422;14.912;2022-08-21T05:21:02;6.20;;;2.97;;
66626;SDS011;53498;50.422;14.912;2022-08-21T05:23:27;4.57;;;2.45;;
66626;SDS011;53498;50.422;14.912;2022-08-21T05:25:53;6.30;;;3.08;;
66626;SDS011;53498;50.422;14.912;2022-08-21T05:28:19;4.88;;;3.17;;
66626;SDS011;53498;50.422;14.912;2022-08-21T05:30:44;6.95;;;3.38;;
66626;SDS011;53498;50.422;14.912;2022-08-21T05:33:10;4.13;;;3.22;;
66626;SDS011;53498;50.422;14.912;2022-08-21T05:35:36;5.05;;;3.58;;
66626;SDS011;53498;50.422;14.912;2022-08-21T05:38:03;5.72;;;3.45;;
66626;SDS011;53498;50.422;14.912;2022-08-21T05:40:29;4.00;;;2.97;;
66626;SDS011;53498;50.422;14.912;2022-08-21T05:42:55;3.72;;;2.75;;
66626;SDS011;53498;50.422;14.912;2022-08-21T05:45:26;3.67;;;2.67;;
66626;SDS011;53498;50.422;14.912;2022-08-21T05:47:53;3.60;;;2.67;;
66626;SDS011;53498;50.422;14.912;2022-08-21T05:50:19;4.18;;;2.55;;
66626;SDS011;53498;50.422;14.912;2022-08-21T05:52:45;4.40;;;2.55;;
66626;SDS011;53498;50.422;14.912;2022-08-21T05:55:11;3.80;;;3.08;;
66626;SDS011;53498;50.422;14.912;2022-08-21T05:57:44;3.63;;;2.90;;
66626;SDS011;53498;50.422;14.912;2022-08-21T06:00:09;4.07;;;3.15;;
66626;SDS011;53498;50.422;14.912;2022-08-21T06:02:37;3.30;;;2.53;;
66626;SDS011;53498;50.422;14.912;2022-08-21T06:05:04;6.00;;;3.28;;
66626;SDS011;53498;50.422;14.912;2022-08-21T06:07:29;6.13;;;3.17;;
66626;SDS011;53498;50.422;14.912;2022-08-21T06:09:55;4.93;;;2.92;;
66626;SDS011;53498;50.422;14.912;2022-08-21T06:12:21;3.47;;;2.78;;
66626;SDS011;53498;50.422;14.912;2022-08-21T06:14:48;3.42;;;2.72;;
66626;SDS011;53498;50.422;14.912;2022-08-21T06:17:15;5.13;;;2.72;;
66626;SDS011;53498;50.422;14.912;2022-08-21T06:19:41;3.63;;;2.85;;
66626;SDS011;53498;50.422;14.912;2022-08-21T06:22:06;4.97;;;3.17;;
66626;SDS011;53498;50.422;14.912;2022-08-21T06:24:33;4.25;;;2.53;;
66626;SDS011;53498;50.422;14.912;2022-08-21T06:27:03;6.10;;;2.55;;
66626;SDS011;53498;50.422;14.912;2022-08-21T06:29:32;5.40;;;3.45;;
66626;SDS011;53498;50.422;14.912;2022-08-21T06:31:59;3.22;;;2.63;;
66626;SDS011;53498;50.422;14.912;2022-08-21T06:34:24;3.97;;;2.55;;
66626;SDS011;53498;50.422;14.912;2022-08-21T06:36:50;3.30;;;2.75;;
66626;SDS011;53498;50.422;14.912;2022-08-21T06:39:15;5.75;;;2.42;;
66626;SDS011;53498;50.422;14.912;2022-08-21T06:41:41;3.85;;;2.55;;
66626;SDS011;53498;50.422;14.912;2022-08-21T06:44:07;6.38;;;2.97;;
66626;SDS011;53498;50.422;14.912;2022-08-21T06:46:33;4.90;;;3.08;;
66626;SDS011;53498;50.422;14.912;2022-08-21T06:48:59;4.18;;;2.55;;
66626;SDS011;53498;50.422;14.912;2022-08-21T06:51:24;5.82;;;3.20;;
66626;SDS011;53498;50.422;14.912;2022-08-21T06:53:51;4.22;;;2.75;;
66626;SDS011;53498;50.422;14.912;2022-08-21T06:56:17;3.67;;;2.15;;
66626;SDS011;53498;50.422;14.912;2022-08-21T06:58:43;4.35;;;2.88;;
66626;SDS011;53498;50.422;14.912;2022-08-21T07:01:10;5.50;;;4.10;;
66626;SDS011;53498;50.422;14.912;2022-08-21T07:03:37;3.83;;;3.17;;
66626;SDS011;53498;50.422;14.912;2022-08-21T07:06:04;3.38;;;2.83;;
66626;SDS011;53498;50.422;14.912;2022-08-21T07:08:31;3.63;;;3.10;;
66626;SDS011;53498;50.422;14.912;2022-08-21T07:10:58;5.53;;;2.92;;
66626;SDS011;53498;50.422;14.912;2022-08-21T07:13:26;6.55;;;3.40;;
66626;SDS011;53498;50.422;14.912;2022-08-21T07:15:52;3.50;;;2.97;;
66626;SDS011;53498;50.422;14.912;2022-08-21T07:18:18;3.78;;;2.95;;
66626;SDS011;53498;50.422;14.912;2022-08-21T07:20:44;3.35;;;2.80;;
66626;SDS011;53498;50.422;14.912;2022-08-21T07:23:12;3.05;;;2.53;;
66626;SDS011;53498;50.422;14.912;2022-08-21T07:25:45;4.45;;;2.97;;
66626;SDS011;53498;50.422;14.912;2022-08-21T07:28:11;3.50;;;2.75;;
66626;SDS011;53498;50.422;14.912;2022-08-21T07:30:36;4.40;;;2.67;;
66626;SDS011;53498;50.422;14.912;2022-08-21T07:33:02;4.70;;;3.10;;
66626;SDS011;53498;50.422;14.912;2022-08-21T07:35:27;4.93;;;3.08;;
66626;SDS011;53498;50.422;14.912;2022-08-21T07:37:53;3.10;;;2.85;;
66626;SDS011;53498;50.422;14.912;2022-08-21T07:40:19;4.40;;;3.00;;
66626;SDS011;53498;50.422;14.912;2022-08-21T07:42:47;4.28;;;3.08;;
66626;SDS011;53498;50.422;14.912;2022-08-21T07:45:17;6.00;;;3.72;;
66626;SDS011;53498;50.422;14.912;2022-08-21T07:47:44;5.28;;;3.67;;
66626;SDS011;53498;50.422;14.912;2022-08-21T07:50:11;4.50;;;3.10;;
66626;SDS011;53498;50.422;14.912;2022-08-21T07:52:37;7.25;;;3.00;;
66626;SDS011;53498;50.422;14.912;2022-08-21T07:55:04;3.90;;;2.72;;
66626;SDS011;53498;50.422;14.912;2022-08-21T07:57:30;3.20;;;2.75;;
66626;SDS011;53498;50.422;14.912;2022-08-21T07:59:56;3.20;;;2.70;;
66626;SDS011;53498;50.422;14.912;2022-08-21T08:02:25;3.35;;;2.65;;
66626;SDS011;53498;50.422;14.912;2022-08-21T08:04:53;3.80;;;3.05;;
66626;SDS011;53498;50.422;14.912;2022-08-21T08:07:19;3.35;;;2.85;;
66626;SDS011;53498;50.422;14.912;2022-08-21T08:09:45;4.25;;;3.58;;
66626;SDS011;53498;50.422;14.912;2022-08-21T08:12:11;4.07;;;3.00;;
66626;SDS011;53498;50.422;14.912;2022-08-21T08:14:37;5.10;;;3.03;;
66626;SDS011;53498;50.422;14.912;2022-08-21T08:17:03;3.28;;;2.70;;
66626;SDS011;53498;50.422;14.912;2022-08-21T08:19:28;4.28;;;2.95;;
66626;SDS011;53498;50.422;14.912;2022-08-21T08:21:54;3.78;;;2.80;;
66626;SDS011;53498;50.422;14.912;2022-08-21T08:24:20;3.88;;;2.95;;
66626;SDS011;53498;50.422;14.912;2022-08-21T08:26:46;5.82;;;3.03;;
66626;SDS011;53498;50.422;14.912;2022-08-21T08:29:12;4.30;;;3.30;;
66626;SDS011;53498;50.422;14.912;2022-08-21T08:31:37;3.47;;;3.08;;
66626;SDS011;53498;50.422;14.912;2022-08-21T08:34:03;4.53;;;3.78;;
66626;SDS011;53498;50.422;14.912;2022-08-21T08:36:33;3.72;;;2.85;;
66626;SDS011;53498;50.422;14.912;2022-08-21T08:39:00;5.53;;;3.92;;
66626;SDS011;53498;50.422;14.912;2022-08-21T08:41:26;3.78;;;3.17;;
66626;SDS011;53498;50.422;14.912;2022-08-21T08:43:58;7.15;;;3.55;;
66626;SDS011;53498;50.422;14.912;2022-08-21T08:49:53;5.47;;;3.80;;
66626;SDS011;53498;50.422;14.912;2022-08-21T08:51:58;6.07;;;3.28;;
66626;SDS011;53498;50.422;14.912;2022-08-21T08:57:00;4.53;;;3.65;;
66626;SDS011;53498;50.422;14.912;2022-08-21T09:00:04;7.35;;;4.20;;
66626;SDS011;53498;50.422;14.912;2022-08-21T09:02:21;6.60;;;3.78;;
66626;SDS011;53498;50.422;14.912;2022-08-21T09:04:52;7.90;;;4.45;;
66626;SDS011;53498;50.422;14.912;2022-08-21T09:15:24;5.38;;;4.45;;
66626;SDS011;53498;50.422;14.912;2022-08-21T09:20:38;7.68;;;3.65;;
66626;SDS011;53498;50.422;14.912;2022-08-21T09:26:23;4.50;;;3.55;;
66626;SDS011;53498;50.422;14.912;2022-08-21T09:28:52;4.82;;;3.70;;
66626;SDS011;53498;50.422;14.912;2022-08-21T09:31:24;4.70;;;3.00;;
66626;SDS011;53498;50.422;14.912;2022-08-21T09:34:09;4.05;;;3.58;;
66626;SDS011;53498;50.422;14.912;2022-08-21T09:39:13;6.28;;;3.40;;
66626;SDS011;53498;50.422;14.912;2022-08-21T09:41:55;7.20;;;4.10;;
66626;SDS011;53498;50.422;14.912;2022-08-21T09:44:29;8.13;;;3.60;;
66626;SDS011;53498;50.422;14.912;2022-08-21T09:46:56;5.30;;;4.00;;
66626;SDS011;53498;50.422;14.912;2022-08-21T09:49:29;3.95;;;3.13;;
66626;SDS011;53498;50.422;14.912;2022-08-21T09:51:56;3.58;;;3.10;;
66626;SDS011;53498;50.422;14.912;2022-08-21T09:54:26;5.40;;;3.75;;
66626;SDS011;53498;50.422;14.912;2022-08-21T09:56:56;3.78;;;2.83;;
66626;SDS011;53498;50.422;14.912;2022-08-21T09:59:43;6.65;;;4.40;;
66626;SDS011;53498;50.422;14.912;2022-08-21T10:04:59;4.55;;;3.53;;
66626;SDS011;53498;50.422;14.912;2022-08-21T10:07:30;8.00;;;3.92;;
66626;SDS011;53498;50.422;14.912;2022-08-21T10:10:08;6.78;;;4.07;;
66626;SDS011;53498;50.422;14.912;2022-08-21T10:12:57;5.07;;;2.97;;
66626;SDS011;53498;50.422;14.912;2022-08-21T10:18:26;5.47;;;4.00;;
66626;SDS011;53498;50.422;14.912;2022-08-21T10:23:38;5.35;;;3.35;;
66626;SDS011;53498;50.422;14.912;2022-08-21T10:26:28;3.30;;;3.00;;
66626;SDS011;53498;50.422;14.912;2022-08-21T10:29:03;3.03;;;2.72;;
66626;SDS011;53498;50.422;14.912;2022-08-21T10:45:49;5.70;;;3.45;;
66626;SDS011;53498;50.422;14.912;2022-08-21T10:48:38;4.25;;;3.13;;
66626;SDS011;53498;50.422;14.912;2022-08-21T10:51:26;3.85;;;3.17;;
66626;SDS011;53498;50.422;14.912;2022-08-21T10:54:01;5.22;;;2.60;;
66626;SDS011;53498;50.422;14.912;2022-08-21T10:56:36;2.42;;;2.22;;
66626;SDS011;53498;50.422;14.912;2022-08-21T11:02:53;3.78;;;2.83;;
66626;SDS011;53498;50.422;14.912;2022-08-21T11:07:53;3.45;;;1.88;;
66626;SDS011;53498;50.422;14.912;2022-08-21T11:10:31;3.28;;;2.60;;
66626;SDS011;53498;50.422;14.912;2022-08-21T11:13:17;2.60;;;2.08;;
66626;SDS011;53498;50.422;14.912;2022-08-21T11:18:41;4.78;;;2.60;;
66626;SDS011;53498;50.422;14.912;2022-08-21T11:29:38;3.78;;;2.30;;
66626;SDS011;53498;50.422;14.912;2022-08-21T11:51:21;2.63;;;2.22;;
66626;SDS011;53498;50.422;14.912;2022-08-21T11:56:23;3.40;;;2.25;;
66626;SDS011;53498;50.422;14.912;2022-08-21T11:58:55;4.88;;;2.47;;
66626;SDS011;53498;50.422;14.912;2022-08-21T12:01:43;3.35;;;2.00;;
66626;SDS011;53498;50.422;14.912;2022-08-21T12:04:26;2.78;;;1.73;;
66626;SDS011;53498;50.422;14.912;2022-08-21T12:06:55;1.98;;;1.77;;
66626;SDS011;53498;50.422;14.912;2022-08-21T12:12:06;4.68;;;2.00;;
66626;SDS011;53498;50.422;14.912;2022-08-21T12:15:03;2.10;;;1.85;;
66626;SDS011;53498;50.422;14.912;2022-08-21T12:17:38;5.45;;;2.00;;
66626;SDS011;53498;50.422;14.912;2022-08-21T12:23:05;1.58;;;1.48;;
66626;SDS011;53498;50.422;14.912;2022-08-21T12:28:14;2.45;;;1.10;;
66626;SDS011;53498;50.422;14.912;2022-08-21T12:35:49;2.88;;;1.58;;
66626;SDS011;53498;50.422;14.912;2022-08-21T12:38:26;4.00;;;1.60;;
66626;SDS011;53498;50.422;14.912;2022-08-21T12:41:01;2.75;;;1.60;;
66626;SDS011;53498;50.422;14.912;2022-08-21T12:43:51;3.95;;;1.98;;
66626;SDS011;53498;50.422;14.912;2022-08-21T12:46:32;3.03;;;1.48;;
66626;SDS011;53498;50.422;14.912;2022-08-21T12:49:12;2.00;;;1.67;;
66626;SDS011;53498;50.422;14.912;2022-08-21T12:51:50;2.72;;;1.50;;
66626;SDS011;53498;50.422;14.912;2022-08-21T12:54:24;3.17;;;2.13;;
66626;SDS011;53498;50.422;14.912;2022-08-21T12:57:00;3.15;;;2.08;;
66626;SDS011;53498;50.422;14.912;2022-08-21T12:59:27;2.83;;;1.63;;
66626;SDS011;53498;50.422;14.912;2022-08-21T13:01:54;2.95;;;1.92;;
66626;SDS011;53498;50.422;14.912;2022-08-21T13:04:22;3.33;;;1.88;;
66626;SDS011;53498;50.422;14.912;2022-08-21T13:07:04;1.80;;;1.27;;
66626;SDS011;53498;50.422;14.912;2022-08-21T13:09:32;2.90;;;1.75;;
66626;SDS011;53498;50.422;14.912;2022-08-21T13:11:58;1.77;;;1.38;;
66626;SDS011;53498;50.422;14.912;2022-08-21T13:14:33;2.72;;;2.28;;
66626;SDS011;53498;50.422;14.912;2022-08-21T13:17:03;2.20;;;1.65;;
66626;SDS011;53498;50.422;14.912;2022-08-21T13:19:30;6.05;;;1.63;;
66626;SDS011;53498;50.422;14.912;2022-08-21T13:21:57;2.10;;;1.50;;
66626;SDS011;53498;50.422;14.912;2022-08-21T13:24:28;4.38;;;1.90;;
66626;SDS011;53498;50.422;14.912;2022-08-21T13:26:56;3.67;;;1.70;;
66626;SDS011;53498;50.422;14.912;2022-08-21T13:29:23;3.83;;;1.67;;
66626;SDS011;53498;50.422;14.912;2022-08-21T13:31:55;2.58;;;1.52;;
66626;SDS011;53498;50.422;14.912;2022-08-21T13:34:24;4.32;;;1.73;;
66626;SDS011;53498;50.422;14.912;2022-08-21T13:36:54;2.30;;;2.10;;
66626;SDS011;53498;50.422;14.912;2022-08-21T13:39:23;2.92;;;1.67;;
66626;SDS011;53498;50.422;14.912;2022-08-21T13:41:50;2.42;;;1.58;;
66626;SDS011;53498;50.422;14.912;2022-08-21T13:47:01;1.73;;;1.40;;
66626;SDS011;53498;50.422;14.912;2022-08-21T13:49:30;3.05;;;1.65;;
66626;SDS011;53498;50.422;14.912;2022-08-21T13:51:57;2.33;;;1.50;;
66626;SDS011;53498;50.422;14.912;2022-08-21T13:54:40;2.20;;;1.35;;
66626;SDS011;53498;50.422;14.912;2022-08-21T13:57:23;1.50;;;1.35;;
66626;SDS011;53498;50.422;14.912;2022-08-21T14:02:50;2.88;;;1.70;;
66626;SDS011;53498;50.422;14.912;2022-08-21T14:05:22;7.65;;;2.40;;
66626;SDS011;53498;50.422;14.912;2022-08-21T14:10:27;3.15;;;1.77;;
66626;SDS011;53498;50.422;14.912;2022-08-21T14:13:04;2.92;;;2.33;;
66626;SDS011;53498;50.422;14.912;2022-08-21T14:15:32;1.75;;;1.40;;
66626;SDS011;53498;50.422;14.912;2022-08-21T14:18:16;4.10;;;1.90;;
66626;SDS011;53498;50.422;14.912;2022-08-21T14:23:10;2.65;;;1.52;;
66626;SDS011;53498;50.422;14.912;2022-08-21T14:30:38;4.03;;;1.90;;
66626;SDS011;53498;50.422;14.912;2022-08-21T14:33:08;3.75;;;2.30;;
66626;SDS011;53498;50.422;14.912;2022-08-21T14:35:36;3.70;;;2.05;;
66626;SDS011;53498;50.422;14.912;2022-08-21T14:38:02;1.52;;;1.42;;
66626;SDS011;53498;50.422;14.912;2022-08-21T14:40:48;2.58;;;1.65;;
66626;SDS011;53498;50.422;14.912;2022-08-21T14:43:16;3.75;;;2.08;;
66626;SDS011;53498;50.422;14.912;2022-08-21T14:45:42;2.83;;;2.08;;
66626;SDS011;53498;50.422;14.912;2022-08-21T14:48:09;5.15;;;2.03;;
66626;SDS011;53498;50.422;14.912;2022-08-21T14:50:34;1.35;;;1.23;;
66626;SDS011;53498;50.422;14.912;2022-08-21T14:53:00;2.67;;;1.90;;
66626;SDS011;53498;50.422;14.912;2022-08-21T14:55:26;2.90;;;1.70;;
66626;SDS011;53498;50.422;14.912;2022-08-21T14:57:52;2.75;;;1.67;;
66626;SDS011;53498;50.422;14.912;2022-08-21T15:00:22;2.75;;;1.67;;
66626;SDS011;53498;50.422;14.912;2022-08-21T15:02:52;2.05;;;1.55;;
66626;SDS011;53498;50.422;14.912;2022-08-21T15:05:18;2.88;;;2.10;;
66626;SDS011;53498;50.422;14.912;2022-08-21T15:07:44;2.53;;;1.92;;
66626;SDS011;53498;50.422;14.912;2022-08-21T15:10:11;2.05;;;1.42;;
66626;SDS011;53498;50.422;14.912;2022-08-21T15:12:37;1.40;;;1.30;;
66626;SDS011;53498;50.422;14.912;2022-08-21T15:15:06;1.80;;;1.40;;
66626;SDS011;53498;50.422;14.912;2022-08-21T15:17:32;2.65;;;1.40;;
66626;SDS011;53498;50.422;14.912;2022-08-21T15:19:58;1.23;;;0.98;;
66626;SDS011;53498;50.422;14.912;2022-08-21T15:22:23;3.25;;;1.90;;
66626;SDS011;53498;50.422;14.912;2022-08-21T15:24:49;3.40;;;1.65;;
66626;SDS011;53498;50.422;14.912;2022-08-21T15:27:15;2.33;;;2.03;;
66626;SDS011;53498;50.422;14.912;2022-08-21T15:29:42;2.17;;;1.55;;
66626;SDS011;53498;50.422;14.912;2022-08-21T15:32:16;1.40;;;1.25;;
66626;SDS011;53498;50.422;14.912;2022-08-21T15:34:56;1.83;;;1.20;;
66626;SDS011;53498;50.422;14.912;2022-08-21T15:37:23;3.35;;;1.10;;
66626;SDS011;53498;50.422;14.912;2022-08-21T15:39:50;4.90;;;1.65;;
66626;SDS011;53498;50.422;14.912;2022-08-21T15:42:17;2.15;;;1.17;;
66626;SDS011;53498;50.422;14.912;2022-08-21T15:44:44;2.03;;;1.23;;
66626;SDS011;53498;50.422;14.912;2022-08-21T15:47:15;1.23;;;1.05;;
66626;SDS011;53498;50.422;14.912;2022-08-21T15:49:44;0.80;;;0.77;;
66626;SDS011;53498;50.422;14.912;2022-08-21T15:52:17;1.42;;;1.20;;
66626;SDS011;53498;50.422;14.912;2022-08-21T15:54:44;1.50;;;1.30;;
66626;SDS011;53498;50.422;14.912;2022-08-21T15:57:14;2.20;;;1.17;;
66626;SDS011;53498;50.422;14.912;2022-08-21T15:59:42;1.20;;;0.93;;
66626;SDS011;53498;50.422;14.912;2022-08-21T16:02:12;2.22;;;1.55;;
66626;SDS011;53498;50.422;14.912;2022-08-21T16:04:41;1.05;;;0.80;;
66626;SDS011;53498;50.422;14.912;2022-08-21T16:07:07;1.10;;;1.00;;
66626;SDS011;53498;50.422;14.912;2022-08-21T16:09:32;1.95;;;1.00;;
66626;SDS011;53498;50.422;14.912;2022-08-21T16:11:59;1.17;;;1.08;;
66626;SDS011;53498;50.422;14.912;2022-08-21T16:14:25;3.13;;;1.40;;
66626;SDS011;53498;50.422;14.912;2022-08-21T16:16:53;1.80;;;1.00;;
66626;SDS011;53498;50.422;14.912;2022-08-21T16:19:19;1.23;;;0.93;;
66626;SDS011;53498;50.422;14.912;2022-08-21T16:21:46;3.28;;;1.10;;
66626;SDS011;53498;50.422;14.912;2022-08-21T16:24:11;1.15;;;0.95;;
66626;SDS011;53498;50.422;14.912;2022-08-21T16:26:37;1.77;;;0.82;;
66626;SDS011;53498;50.422;14.912;2022-08-21T16:29:03;1.73;;;0.95;;
66626;SDS011;53498;50.422;14.912;2022-08-21T16:31:30;4.03;;;1.10;;
66626;SDS011;53498;50.422;14.912;2022-08-21T16:33:57;2.53;;;1.27;;
66626;SDS011;53498;50.422;14.912;2022-08-21T16:36:24;1.13;;;1.00;;
66626;SDS011;53498;50.422;14.912;2022-08-21T16:38:50;1.13;;;0.98;;